< < Back
Terminal Aerodrome Forecast


Current Version              Previous Versions:   1  2  3  4  5  6  7  8  9  

Terminal Aerodrome Forecast

084
FTUS42 KTAE 311408 AAB
TAFVLD
TAF AMD
KVLD 311408Z 3114/0112 17004KT P6SM BKN015
     FM311500 17005KT P6SM SCT025
     FM311900 18006KT P6SM VCTS BKN040CB
      TEMPO 3119/3123 VRB15G25KT 3SM TSRA BR BKN030CB
     FM010100 VRB03KT P6SM SCT030 BKN100=

Latest METAR

245
SAUS70 KWBC 312256
MTRVLD
METAR KVLD 312253Z VRB03KT 10SM HZ FEW032 31/26 A2987 RMK AO2 SLP120
T03110256


USA.gov is the U.S. government's official web portal to all federal, state and local government web resources and services.